createdAt,value
2022-11-20T00:01:17.388Z,7.47
2022-11-20T00:03:44.496Z,7.13
2022-11-20T00:06:13.199Z,7.82
2022-11-20T00:08:40.147Z,6.28
2022-11-20T00:11:15.830Z,6.70
2022-11-20T00:13:44.508Z,6.95
2022-11-20T00:16:12.863Z,6.00
2022-11-20T00:18:39.786Z,6.85
2022-11-20T00:21:08.774Z,8.55
2022-11-20T00:23:35.640Z,8.57
2022-11-20T00:26:04.534Z,9.18
2022-11-20T00:28:31.527Z,8.82
2022-11-20T00:31:07.614Z,9.15
2022-11-20T00:33:34.665Z,8.20
2022-11-20T00:36:09.731Z,7.65
2022-11-20T00:38:36.619Z,7.80
2022-11-20T00:41:05.441Z,7.93
2022-11-20T00:43:32.407Z,7.22
2022-11-20T00:46:06.569Z,7.05
2022-11-20T00:48:33.552Z,7.07
2022-11-20T00:51:00.735Z,7.20
2022-11-20T00:53:27.848Z,7.65
2022-11-20T00:55:59.007Z,6.07
2022-11-20T00:58:26.620Z,5.85
2022-11-20T01:00:53.597Z,5.90
2022-11-20T01:03:25.568Z,6.22
2022-11-20T01:05:53.793Z,5.70
2022-11-20T01:08:20.614Z,6.47
2022-11-20T01:10:47.432Z,5.65
2022-11-20T01:13:32.810Z,5.20
2022-11-20T01:16:10.841Z,4.57
2022-11-20T01:18:38.573Z,5.28
2022-11-20T01:21:10.387Z,4.63
2022-11-20T01:23:39.352Z,3.92
2022-11-20T01:26:08.451Z,3.95
2022-11-20T01:28:35.823Z,3.90
2022-11-20T01:31:03.135Z,4.47
2022-11-20T01:33:30.017Z,3.88
2022-11-20T01:36:05.049Z,3.47
2022-11-20T01:38:31.937Z,3.45
2022-11-20T01:40:58.807Z,2.80
2022-11-20T01:43:26.494Z,3.83
2022-11-20T01:45:59.460Z,2.92
2022-11-20T01:48:49.957Z,3.10
2022-11-20T01:51:28.131Z,2.67
2022-11-20T01:53:55.395Z,3.63
2022-11-20T01:56:22.288Z,2.42
2022-11-20T01:58:51.837Z,2.70
2022-11-20T02:01:18.807Z,2.20
2022-11-20T02:03:45.774Z,2.25
2022-11-20T02:06:25.539Z,2.40
2022-11-20T02:08:53.270Z,2.05
2022-11-20T02:11:20.268Z,2.00
2022-11-20T02:13:47.260Z,2.00
2022-11-20T02:16:24.512Z,2.60
2022-11-20T02:18:51.615Z,2.03
2022-11-20T02:21:24.297Z,2.13
2022-11-20T02:24:06.955Z,2.87
2022-11-20T02:26:37.064Z,2.40
2022-11-20T02:29:04.571Z,3.05
2022-11-20T02:31:44.203Z,2.10
2022-11-20T02:34:11.116Z,1.65
2022-11-20T02:36:38.122Z,1.80
2022-11-20T02:39:05.399Z,1.98
2022-11-20T02:41:34.111Z,2.03
2022-11-20T02:44:01.112Z,2.38
2022-11-20T02:46:28.131Z,1.98
2022-11-20T02:48:54.958Z,1.95
2022-11-20T02:51:21.763Z,1.92
2022-11-20T02:53:48.585Z,2.03
2022-11-20T02:56:15.426Z,2.78
2022-11-20T02:58:42.352Z,1.60
2022-11-20T03:01:09.448Z,1.65
2022-11-20T03:03:36.454Z,1.42
2022-11-20T03:06:03.436Z,1.52
2022-11-20T03:08:30.401Z,1.20
2022-11-20T03:10:57.471Z,1.10
2022-11-20T03:13:25.771Z,1.10
2022-11-20T03:15:52.642Z,0.90
2022-11-20T03:18:25.274Z,1.05
2022-11-20T03:20:58.805Z,1.83
2022-11-20T03:23:28.234Z,1.10
2022-11-20T03:25:55.216Z,1.13
2022-11-20T03:28:22.070Z,0.68
2022-11-20T03:30:49.013Z,0.82
2022-11-20T03:33:16.321Z,0.80
2022-11-20T03:35:43.187Z,0.70
2022-11-20T03:38:10.073Z,0.88
2022-11-20T03:40:37.236Z,0.60
2022-11-20T03:43:04.098Z,0.43
2022-11-20T03:45:30.960Z,0.63
2022-11-20T03:47:57.881Z,0.60
2022-11-20T03:50:24.928Z,0.80
2022-11-20T03:52:51.879Z,0.80
2022-11-20T03:55:18.761Z,0.88
2022-11-20T03:57:45.596Z,0.60
2022-11-20T04:00:13.203Z,0.60
2022-11-20T04:02:40.112Z,0.73
2022-11-20T04:05:07.410Z,0.65
2022-11-20T04:07:35.108Z,0.60
2022-11-20T04:10:04.627Z,0.57
2022-11-20T04:12:34.287Z,0.70
2022-11-20T04:15:01.238Z,0.88
2022-11-20T04:17:28.084Z,1.30
2022-11-20T04:19:56.471Z,0.60
2022-11-20T04:22:23.411Z,0.60
2022-11-20T04:24:50.272Z,0.70
2022-11-20T04:27:17.156Z,0.55
2022-11-20T04:29:43.959Z,0.77
2022-11-20T04:32:10.825Z,1.17
2022-11-20T04:34:37.644Z,0.90
2022-11-20T04:37:04.647Z,1.10
2022-11-20T04:39:31.548Z,0.60
2022-11-20T04:42:16.819Z,0.70
2022-11-20T04:44:43.712Z,0.90
2022-11-20T04:47:10.621Z,1.50
2022-11-20T04:49:37.586Z,0.65
2022-11-20T04:52:04.543Z,1.10
2022-11-20T04:54:31.485Z,0.88
2022-11-20T04:56:58.367Z,1.02
2022-11-20T04:59:25.276Z,0.88
2022-11-20T05:01:52.494Z,1.20
2022-11-20T05:04:19.418Z,0.90
2022-11-20T05:06:46.700Z,0.77
2022-11-20T05:09:13.952Z,0.80
2022-11-20T05:11:40.912Z,0.60
2022-11-20T05:14:07.810Z,0.90
2022-11-20T05:16:35.265Z,0.93
2022-11-20T05:19:02.089Z,0.90
2022-11-20T05:21:31.429Z,0.88
2022-11-20T05:23:58.357Z,0.70
2022-11-20T05:26:25.211Z,1.70
2022-11-20T05:28:52.340Z,0.90
2022-11-20T05:31:26.332Z,0.70
2022-11-20T05:33:54.365Z,0.60
2022-11-20T05:36:21.233Z,0.73
2022-11-20T05:38:50.931Z,1.00
2022-11-20T05:41:19.653Z,1.30
2022-11-20T05:43:47.089Z,1.50
2022-11-20T05:46:15.482Z,0.98
2022-11-20T05:48:42.895Z,1.60
2022-11-20T05:51:10.847Z,1.30
2022-11-20T05:53:37.683Z,1.38
2022-11-20T05:56:10.922Z,0.70
2022-11-20T05:58:37.893Z,0.80
2022-11-20T06:01:12.566Z,1.27
2022-11-20T06:03:39.871Z,0.85
2022-11-20T06:06:07.183Z,1.25
2022-11-20T06:08:34.093Z,1.10
2022-11-20T06:11:04.952Z,0.60
2022-11-20T06:13:31.934Z,0.60
2022-11-20T06:15:58.831Z,0.90
2022-11-20T06:18:27.534Z,1.27
2022-11-20T06:21:13.082Z,0.43
2022-11-20T06:23:40.008Z,1.00
2022-11-20T06:26:08.379Z,0.82
2022-11-20T06:28:35.322Z,0.98
2022-11-20T06:31:02.505Z,1.35
2022-11-20T06:33:29.490Z,0.80
2022-11-20T06:36:08.980Z,1.30
2022-11-20T06:38:37.430Z,0.70
2022-11-20T06:41:05.140Z,0.80
2022-11-20T06:43:31.949Z,0.90
2022-11-20T06:45:59.446Z,0.60
2022-11-20T06:48:29.446Z,0.57
2022-11-20T06:50:56.758Z,1.55
2022-11-20T06:53:24.021Z,0.60
2022-11-20T06:55:51.214Z,0.60
2022-11-20T06:58:18.630Z,0.85
2022-11-20T07:00:45.625Z,0.50
2022-11-20T07:03:12.918Z,0.40
2022-11-20T07:05:39.782Z,0.40
2022-11-20T07:08:06.911Z,0.50
2022-11-20T07:10:33.857Z,0.70
2022-11-20T07:13:00.738Z,0.40
2022-11-20T07:15:27.899Z,0.50
2022-11-20T07:17:54.811Z,0.47
2022-11-20T07:20:21.715Z,0.40
2022-11-20T07:22:48.635Z,0.50
2022-11-20T07:25:15.599Z,0.32
2022-11-20T07:27:42.411Z,0.30
2022-11-20T07:30:09.691Z,0.50
2022-11-20T07:32:36.871Z,0.68
2022-11-20T07:35:03.790Z,0.40
2022-11-20T07:37:30.671Z,0.40
2022-11-20T07:39:57.513Z,0.50
2022-11-20T07:42:24.448Z,0.40
2022-11-20T07:44:51.700Z,0.30
2022-11-20T07:47:18.543Z,0.38
2022-11-20T07:49:45.400Z,0.45
2022-11-20T07:52:12.188Z,0.40
2022-11-20T07:54:39.068Z,0.20
2022-11-20T07:57:05.875Z,0.30
2022-11-20T07:59:32.726Z,0.30
2022-11-20T08:01:59.769Z,0.20
2022-11-20T08:04:26.595Z,0.20
2022-11-20T08:06:53.649Z,0.55
2022-11-20T08:09:20.693Z,0.63
2022-11-20T08:12:06.268Z,0.20
2022-11-20T08:14:33.126Z,0.20
2022-11-20T08:17:00.599Z,0.20
2022-11-20T08:19:27.513Z,0.20
2022-11-20T08:21:54.394Z,0.10
2022-11-20T08:24:21.328Z,1.75
2022-11-20T08:26:50.640Z,10.13
2022-11-20T08:29:17.544Z,0.30
2022-11-20T08:31:44.458Z,0.30
2022-11-20T08:34:13.860Z,0.30
2022-11-20T08:36:44.760Z,0.57
2022-11-20T08:39:15.243Z,0.40
2022-11-20T08:41:48.319Z,0.80
2022-11-20T08:44:20.470Z,0.80
2022-11-20T08:46:48.080Z,1.30
2022-11-20T08:49:15.231Z,1.50
2022-11-20T08:51:42.382Z,2.85
2022-11-20T08:54:12.451Z,1.70
2022-11-20T08:56:39.321Z,1.77
2022-11-20T08:59:43.442Z,1.38
2022-11-20T09:01:53.048Z,1.40
2022-11-20T09:04:19.969Z,1.20
2022-11-20T09:06:47.266Z,1.17
2022-11-20T09:09:14.233Z,1.48
2022-11-20T09:11:41.092Z,1.40
2022-11-20T09:14:07.975Z,1.20
2022-11-20T09:16:34.843Z,1.20
2022-11-20T09:19:33.639Z,1.38
2022-11-20T09:21:48.592Z,2.08
2022-11-20T09:24:15.490Z,1.88
2022-11-20T09:26:42.367Z,2.20
2022-11-20T09:29:09.336Z,2.35
2022-11-20T09:31:36.213Z,2.53
2022-11-20T09:34:03.145Z,2.60
2022-11-20T09:36:30.092Z,2.58
2022-11-20T09:38:57.821Z,2.25
2022-11-20T09:42:01.822Z,2.22
2022-11-20T09:44:31.510Z,2.35
2022-11-20T09:47:01.543Z,2.35
2022-11-20T09:49:37.876Z,2.50
2022-11-20T09:52:28.094Z,2.90
2022-11-20T09:54:54.965Z,2.33
2022-11-20T09:57:24.318Z,2.80
2022-11-20T09:59:52.329Z,1.85
2022-11-20T10:02:25.402Z,1.55
2022-11-20T10:05:10.239Z,2.03
2022-11-20T10:07:43.331Z,2.50
2022-11-20T10:10:44.229Z,2.27
2022-11-20T10:13:30.347Z,1.80
2022-11-20T10:16:01.329Z,2.08
2022-11-20T10:18:33.728Z,1.65
2022-11-20T10:21:21.643Z,1.73
2022-11-20T10:24:04.020Z,1.48
2022-11-20T10:26:56.862Z,2.03
2022-11-20T10:29:30.234Z,1.52
2022-11-20T10:32:00.940Z,1.38
2022-11-20T10:34:36.549Z,1.88
2022-11-20T10:37:12.341Z,2.00
2022-11-20T10:40:00.486Z,1.75
2022-11-20T10:42:38.897Z,1.15
2022-11-20T10:45:24.696Z,1.38
2022-11-20T10:47:53.891Z,1.27
2022-11-20T10:50:22.559Z,1.20
2022-11-20T10:53:05.114Z,1.55
2022-11-20T10:55:53.737Z,2.03
2022-11-20T10:58:38.606Z,1.98
2022-11-20T11:01:19.548Z,1.15
2022-11-20T11:03:46.540Z,1.20
2022-11-20T11:06:36.749Z,1.13
2022-11-20T11:09:37.014Z,0.95
2022-11-20T11:12:08.339Z,0.95
2022-11-20T11:14:44.184Z,1.13
2022-11-20T11:17:22.149Z,1.45
2022-11-20T11:20:08.352Z,1.48
2022-11-20T11:22:36.243Z,1.50
2022-11-20T11:25:03.268Z,1.40
2022-11-20T11:27:30.167Z,1.63
2022-11-20T11:30:12.979Z,1.42
2022-11-20T11:32:39.878Z,1.48
2022-11-20T11:35:08.039Z,1.67
2022-11-20T11:37:36.823Z,1.17
2022-11-20T11:40:23.442Z,1.65
2022-11-20T11:42:58.602Z,1.23
2022-11-20T11:45:25.499Z,1.23
2022-11-20T11:47:52.735Z,2.45
2022-11-20T11:50:22.021Z,1.80
2022-11-20T11:52:58.406Z,1.77
2022-11-20T11:55:25.327Z,2.30
2022-11-20T11:58:17.793Z,1.42
2022-11-20T12:00:59.961Z,1.35
2022-11-20T12:03:30.607Z,1.75
2022-11-20T12:06:00.767Z,1.40
2022-11-20T12:08:46.037Z,1.60
2022-11-20T12:11:31.724Z,1.58
2022-11-20T12:14:12.035Z,2.10
2022-11-20T12:16:39.286Z,1.40
2022-11-20T12:19:13.713Z,1.67
2022-11-20T12:22:17.558Z,1.40
2022-11-20T12:24:54.549Z,2.20
2022-11-20T12:27:33.247Z,1.40
2022-11-20T12:30:09.251Z,1.63
2022-11-20T12:32:46.027Z,1.67
2022-11-20T12:35:12.969Z,2.10
2022-11-20T12:37:57.848Z,1.73
2022-11-20T12:40:42.601Z,1.90
2022-11-20T12:43:39.344Z,1.38
2022-11-20T12:46:36.849Z,1.30
2022-11-20T12:49:31.888Z,1.50
2022-11-20T12:52:00.662Z,1.40
2022-11-20T12:54:39.947Z,1.40
2022-11-20T12:57:21.483Z,2.08
2022-11-20T13:00:11.925Z,1.20
2022-11-20T13:03:03.062Z,1.00
2022-11-20T13:05:58.106Z,1.85
2022-11-20T13:08:26.734Z,2.63
2022-11-20T13:11:22.227Z,1.73
2022-11-20T13:14:23.097Z,1.30
2022-11-20T13:17:06.387Z,2.05
2022-11-20T13:19:33.485Z,1.70
2022-11-20T13:22:00.322Z,1.30
2022-11-20T13:24:30.952Z,1.50
2022-11-20T13:27:13.829Z,1.35
2022-11-20T13:29:43.912Z,1.43
2022-11-20T13:32:17.733Z,1.20
2022-11-20T13:34:58.774Z,1.48
2022-11-20T13:37:32.604Z,1.27
2022-11-20T13:40:12.067Z,1.73
2022-11-20T13:42:46.689Z,1.77
2022-11-20T13:45:27.921Z,2.45
2022-11-20T13:47:55.093Z,1.55
2022-11-20T13:50:39.101Z,1.60
2022-11-20T13:53:21.420Z,1.90
2022-11-20T13:56:09.089Z,1.58
2022-11-20T13:58:46.183Z,1.65
2022-11-20T14:01:22.311Z,1.30
2022-11-20T14:04:06.529Z,0.90
2022-11-20T14:06:52.719Z,1.70
2022-11-20T14:09:30.280Z,1.20
2022-11-20T14:11:57.814Z,1.80
2022-11-20T14:14:29.087Z,1.30
2022-11-20T14:17:09.265Z,1.02
2022-11-20T14:19:38.068Z,1.67
2022-11-20T14:22:21.312Z,1.33
2022-11-20T14:25:02.294Z,1.33
2022-11-20T14:27:29.191Z,1.70
2022-11-20T14:29:56.155Z,2.85
2022-11-20T14:32:24.842Z,1.65
2022-11-20T14:34:51.691Z,2.63
2022-11-20T14:37:24.081Z,2.08
2022-11-20T14:39:55.484Z,2.10
2022-11-20T14:42:26.845Z,1.40
2022-11-20T14:44:57.906Z,1.73
2022-11-20T14:47:26.799Z,2.05
2022-11-20T14:49:54.286Z,1.23
2022-11-20T14:52:23.052Z,1.75
2022-11-20T14:54:51.322Z,2.22
2022-11-20T14:57:31.055Z,1.80
2022-11-20T15:00:15.962Z,1.63
2022-11-20T15:02:43.540Z,1.88
2022-11-20T15:05:10.465Z,1.83
2022-11-20T15:07:41.026Z,1.60
2022-11-20T15:10:12.902Z,1.75
2022-11-20T15:12:47.727Z,1.60
2022-11-20T15:15:18.422Z,1.80
2022-11-20T15:17:45.209Z,2.03
2022-11-20T15:20:14.614Z,1.83
2022-11-20T15:22:41.493Z,1.63
2022-11-20T15:25:18.486Z,2.72
2022-11-20T15:27:45.660Z,2.42
2022-11-20T15:30:17.958Z,1.73
2022-11-20T15:32:45.023Z,2.40
2022-11-20T15:35:11.969Z,1.77
2022-11-20T15:37:38.973Z,2.13
2022-11-20T15:40:06.486Z,1.73
2022-11-20T15:42:33.742Z,2.70
2022-11-20T15:45:00.697Z,2.13
2022-11-20T15:47:34.756Z,2.20
2022-11-20T15:50:01.741Z,3.75
2022-11-20T15:52:30.543Z,2.22
2022-11-20T15:55:09.636Z,1.88
2022-11-20T15:57:36.774Z,1.85
2022-11-20T16:00:04.288Z,2.35
2022-11-20T16:02:37.952Z,2.58
2022-11-20T16:05:05.397Z,2.00
2022-11-20T16:07:32.361Z,2.30
2022-11-20T16:09:59.435Z,2.17
2022-11-20T16:12:44.784Z,2.60
2022-11-20T16:15:29.807Z,4.80
2022-11-20T16:17:57.066Z,2.28
2022-11-20T16:20:24.227Z,2.20
2022-11-20T16:22:51.123Z,1.73
2022-11-20T16:25:17.978Z,1.42
2022-11-20T16:27:44.905Z,3.42
2022-11-20T16:30:11.952Z,2.08
2022-11-20T16:32:40.160Z,1.65
2022-11-20T16:35:08.460Z,2.25
2022-11-20T16:37:35.350Z,1.77
2022-11-20T16:40:02.154Z,2.42
2022-11-20T16:42:28.984Z,2.05
2022-11-20T16:44:55.818Z,1.42
2022-11-20T16:47:22.728Z,1.88
2022-11-20T16:49:49.647Z,1.50
2022-11-20T16:52:16.858Z,1.75
2022-11-20T16:54:44.191Z,1.48
2022-11-20T16:57:11.152Z,2.00
2022-11-20T16:59:38.011Z,3.20
2022-11-20T17:02:04.792Z,2.20
2022-11-20T17:04:31.614Z,1.50
2022-11-20T17:07:00.480Z,1.55
2022-11-20T17:09:29.601Z,1.50
2022-11-20T17:11:56.453Z,2.42
2022-11-20T17:14:23.795Z,1.67
2022-11-20T17:16:51.259Z,1.58
2022-11-20T17:19:18.167Z,1.58
2022-11-20T17:21:45.107Z,1.58
2022-11-20T17:24:12.671Z,2.65
2022-11-20T17:26:40.614Z,2.17
2022-11-20T17:29:11.782Z,2.03
2022-11-20T17:31:38.950Z,2.08
2022-11-20T17:34:07.122Z,1.90
2022-11-20T17:36:34.633Z,2.17
2022-11-20T17:39:01.615Z,2.90
2022-11-20T17:41:29.324Z,2.10
2022-11-20T17:43:59.648Z,1.55
2022-11-20T17:46:28.105Z,1.77
2022-11-20T17:48:55.600Z,2.30
2022-11-20T17:51:24.474Z,1.90
2022-11-20T17:53:53.013Z,2.35
2022-11-20T17:56:38.879Z,2.25
2022-11-20T17:59:10.475Z,2.30
2022-11-20T18:01:37.570Z,2.35
2022-11-20T18:04:04.446Z,2.50
2022-11-20T18:06:31.769Z,1.42
2022-11-20T18:08:59.750Z,2.08
2022-11-20T18:11:28.606Z,1.63
2022-11-20T18:14:15.782Z,1.20
2022-11-20T18:16:53.827Z,2.63
2022-11-20T18:19:23.709Z,2.45
2022-11-20T18:21:50.826Z,1.65
2022-11-20T18:24:17.799Z,1.60
2022-11-20T18:26:44.764Z,1.52
2022-11-20T18:29:12.456Z,1.55
2022-11-20T18:31:39.573Z,1.75
2022-11-20T18:34:07.678Z,2.10
2022-11-20T18:36:34.547Z,7.85
2022-11-20T18:39:01.830Z,3.15
2022-11-20T18:41:48.633Z,2.83
2022-11-20T18:44:38.518Z,3.17
2022-11-20T18:47:12.753Z,3.20
2022-11-20T18:49:42.388Z,2.67
2022-11-20T18:52:09.300Z,1.95
2022-11-20T18:54:36.977Z,2.53
2022-11-20T18:57:04.858Z,2.30
2022-11-20T18:59:32.116Z,2.10
2022-11-20T19:01:59.160Z,2.90
2022-11-20T19:04:26.606Z,2.03
2022-11-20T19:06:56.247Z,1.60
2022-11-20T19:09:23.869Z,1.90
2022-11-20T19:11:51.771Z,1.92
2022-11-20T19:14:18.831Z,1.90
2022-11-20T19:16:47.665Z,1.88
2022-11-20T19:19:14.871Z,1.52
2022-11-20T19:21:42.313Z,1.90
2022-11-20T19:24:09.258Z,2.40
2022-11-20T19:26:36.949Z,1.75
2022-11-20T19:29:04.629Z,2.10
2022-11-20T19:31:31.695Z,2.30
2022-11-20T19:34:00.848Z,1.70
2022-11-20T19:36:35.168Z,2.20
2022-11-20T19:39:02.941Z,2.08
2022-11-20T19:41:31.386Z,1.90
2022-11-20T19:43:59.645Z,3.38
2022-11-20T19:46:26.917Z,2.15
2022-11-20T19:48:54.482Z,2.83
2022-11-20T19:51:26.436Z,2.38
2022-11-20T19:53:55.025Z,3.00
2022-11-20T19:56:22.763Z,2.17
2022-11-20T19:58:49.724Z,2.13
2022-11-20T20:01:18.607Z,2.40
2022-11-20T20:03:46.098Z,2.25
2022-11-20T20:06:20.905Z,2.25
2022-11-20T20:08:53.406Z,2.63
2022-11-20T20:11:21.331Z,2.53
2022-11-20T20:13:48.399Z,2.55
2022-11-20T20:16:20.338Z,2.60
2022-11-20T20:18:47.309Z,2.85
2022-11-20T20:21:18.666Z,2.65
2022-11-20T20:23:45.738Z,2.97
2022-11-20T20:26:12.589Z,2.78
2022-11-20T20:28:39.533Z,4.22
2022-11-20T20:31:11.313Z,3.53
2022-11-20T20:33:39.114Z,2.65
2022-11-20T20:36:06.856Z,2.40
2022-11-20T20:38:33.810Z,3.25
2022-11-20T20:41:00.812Z,1.95
2022-11-20T20:43:27.943Z,1.63
2022-11-20T20:45:55.322Z,2.38
2022-11-20T20:48:23.714Z,1.98
2022-11-20T20:51:01.097Z,2.13
2022-11-20T20:53:29.977Z,1.88
2022-11-20T20:55:57.837Z,2.65
2022-11-20T20:58:24.851Z,1.65
2022-11-20T21:00:51.844Z,1.77
2022-11-20T21:03:18.982Z,1.63
2022-11-20T21:05:46.159Z,2.13
2022-11-20T21:08:22.439Z,1.88
2022-11-20T21:10:49.501Z,1.85
2022-11-20T21:13:16.341Z,1.30
2022-11-20T21:15:43.384Z,1.42
2022-11-20T21:18:10.328Z,2.05
2022-11-20T21:20:58.603Z,1.83
2022-11-20T21:23:25.587Z,1.15
2022-11-20T21:25:52.483Z,1.58
2022-11-20T21:28:19.450Z,2.10
2022-11-20T21:30:46.771Z,1.70
2022-11-20T21:33:14.115Z,1.77
2022-11-20T21:35:41.496Z,1.85
2022-11-20T21:38:08.420Z,1.27
2022-11-20T21:40:35.523Z,1.38
2022-11-20T21:43:02.390Z,1.13
2022-11-20T21:45:29.315Z,1.83
2022-11-20T21:47:56.334Z,1.88
2022-11-20T21:50:23.254Z,2.05
2022-11-20T21:52:50.347Z,2.47
2022-11-20T21:55:17.320Z,2.72
2022-11-20T21:57:44.238Z,1.45
2022-11-20T22:00:12.179Z,2.30
2022-11-20T22:02:40.381Z,1.90
2022-11-20T22:05:08.406Z,1.33
2022-11-20T22:07:35.522Z,1.35
2022-11-20T22:10:02.689Z,2.10
2022-11-20T22:12:29.648Z,1.38
2022-11-20T22:14:56.654Z,2.05
2022-11-20T22:17:43.568Z,1.27
2022-11-20T22:20:11.258Z,1.40
2022-11-20T22:22:40.338Z,1.83
2022-11-20T22:25:07.601Z,1.48
2022-11-20T22:27:34.548Z,1.42
2022-11-20T22:30:01.464Z,2.15
2022-11-20T22:32:28.426Z,1.65
2022-11-20T22:34:55.226Z,1.90
2022-11-20T22:37:29.697Z,1.27
2022-11-20T22:39:57.021Z,1.27
2022-11-20T22:42:26.037Z,1.42
2022-11-20T22:44:53.236Z,1.50
2022-11-20T22:47:20.441Z,1.00
2022-11-20T22:49:50.624Z,1.42
2022-11-20T22:52:17.510Z,1.40
2022-11-20T22:54:47.135Z,2.17
2022-11-20T22:57:13.992Z,2.17
2022-11-20T22:59:41.607Z,1.27
2022-11-20T23:02:10.140Z,1.30
2022-11-20T23:04:37.045Z,1.13
2022-11-20T23:07:04.624Z,1.23
2022-11-20T23:09:32.671Z,2.45
2022-11-20T23:12:00.005Z,1.17
2022-11-20T23:14:27.981Z,1.30
2022-11-20T23:16:54.988Z,1.58
2022-11-20T23:19:22.638Z,1.05
2022-11-20T23:21:49.581Z,1.58
2022-11-20T23:24:16.514Z,1.13
2022-11-20T23:26:45.196Z,2.30
2022-11-20T23:29:12.976Z,1.25
2022-11-20T23:31:39.951Z,0.88
2022-11-20T23:34:06.838Z,1.35
2022-11-20T23:36:33.756Z,1.05
2022-11-20T23:39:00.786Z,1.30
2022-11-20T23:41:27.776Z,0.98
2022-11-20T23:43:54.661Z,1.10
2022-11-20T23:46:22.814Z,1.67
2022-11-20T23:48:49.698Z,1.00
2022-11-20T23:51:16.772Z,1.25
2022-11-20T23:53:43.722Z,0.95
2022-11-20T23:56:11.124Z,0.90
2022-11-20T23:58:38.491Z,0.90
